createdAt,value
2018-08-14T00:00:39.368Z,0.83
2018-08-14T00:03:09.809Z,0.90
2018-08-14T00:05:38.580Z,0.80
2018-08-14T00:08:07.320Z,0.97
2018-08-14T00:10:36.098Z,1.00
2018-08-14T00:13:05.566Z,0.80
2018-08-14T00:15:34.314Z,1.00
2018-08-14T00:18:03.125Z,1.00
2018-08-14T00:20:31.911Z,1.07
2018-08-14T00:23:00.643Z,1.00
2018-08-14T00:25:29.473Z,0.63
2018-08-14T00:27:58.240Z,0.90
2018-08-14T00:30:28.654Z,1.00
2018-08-14T00:32:58.630Z,0.63
2018-08-14T00:35:27.553Z,0.87
2018-08-14T00:37:56.410Z,1.00
2018-08-14T00:40:25.314Z,1.00
2018-08-14T00:42:56.674Z,0.80
2018-08-14T00:45:25.595Z,0.70
2018-08-14T00:47:54.305Z,0.80
2018-08-14T00:50:23.124Z,0.77
2018-08-14T00:52:51.847Z,0.77
2018-08-14T00:55:21.598Z,0.80
2018-08-14T00:57:50.778Z,1.00
2018-08-14T01:00:23.492Z,0.87
2018-08-14T01:02:53.161Z,0.83
2018-08-14T01:05:21.962Z,1.10
2018-08-14T01:07:50.736Z,0.90
2018-08-14T01:10:19.549Z,0.80
2018-08-14T01:12:51.922Z,0.70
2018-08-14T01:15:22.057Z,0.77
2018-08-14T01:17:52.110Z,1.10
2018-08-14T01:20:22.082Z,0.60
2018-08-14T01:22:50.866Z,0.80
2018-08-14T01:25:19.592Z,1.00
2018-08-14T01:27:49.364Z,0.90
2018-08-14T01:30:24.294Z,0.67
2018-08-14T01:32:53.038Z,0.60
2018-08-14T01:35:21.838Z,0.80
2018-08-14T01:37:50.560Z,0.70
2018-08-14T01:40:19.358Z,0.70
2018-08-14T01:42:48.098Z,0.80
2018-08-14T01:45:16.904Z,0.87
2018-08-14T01:47:46.047Z,0.80
2018-08-14T01:50:19.034Z,0.80
2018-08-14T01:52:48.027Z,0.70
2018-08-14T01:55:17.334Z,0.80
2018-08-14T01:57:46.167Z,0.80
2018-08-14T02:00:14.914Z,0.67
2018-08-14T02:02:43.677Z,0.50
2018-08-14T02:05:12.395Z,0.60
2018-08-14T02:07:41.254Z,0.73
2018-08-14T02:10:13.120Z,0.73
2018-08-14T02:12:41.802Z,0.77
2018-08-14T02:15:12.798Z,0.60
2018-08-14T02:17:41.606Z,0.80
2018-08-14T02:20:16.258Z,0.60
2018-08-14T02:22:45.083Z,0.70
2018-08-14T02:25:13.840Z,0.60
2018-08-14T02:27:43.330Z,0.90
2018-08-14T02:30:12.032Z,0.60
2018-08-14T02:32:40.710Z,0.60
2018-08-14T02:35:10.718Z,1.00
2018-08-14T02:37:39.719Z,0.60
2018-08-14T02:40:10.641Z,0.70
2018-08-14T02:42:39.002Z,0.50
2018-08-14T02:45:08.530Z,0.50
2018-08-14T02:47:37.223Z,0.70
2018-08-14T02:50:06.606Z,0.60
2018-08-14T02:52:35.313Z,0.83
2018-08-14T02:55:04.159Z,0.90
2018-08-14T02:57:32.939Z,0.93
2018-08-14T03:00:01.738Z,0.50
2018-08-14T03:02:30.479Z,0.80
2018-08-14T03:04:59.273Z,0.80
2018-08-14T03:07:27.950Z,0.60
2018-08-14T03:09:56.610Z,0.77
2018-08-14T03:12:25.275Z,0.80
2018-08-14T03:14:59.822Z,0.60
2018-08-14T03:17:29.628Z,0.40
2018-08-14T03:19:58.815Z,0.70
2018-08-14T03:22:27.516Z,0.80
2018-08-14T03:24:56.236Z,0.87
2018-08-14T03:27:25.195Z,1.07
2018-08-14T03:29:53.935Z,0.70
2018-08-14T03:32:22.699Z,0.73
2018-08-14T03:34:51.346Z,0.87
2018-08-14T03:37:20.449Z,0.70
2018-08-14T03:39:49.165Z,1.00
2018-08-14T03:42:18.422Z,1.00
2018-08-14T03:44:47.094Z,0.87
2018-08-14T03:47:15.813Z,0.60
2018-08-14T03:49:44.478Z,0.67
2018-08-14T03:52:13.154Z,1.00
2018-08-14T03:54:41.869Z,0.80
2018-08-14T03:57:10.534Z,0.97
2018-08-14T03:59:39.228Z,0.93
2018-08-14T04:02:08.042Z,0.70
2018-08-14T04:04:36.834Z,0.70
2018-08-14T04:07:05.603Z,0.70
2018-08-14T04:09:34.403Z,0.80
2018-08-14T04:12:03.179Z,0.90
2018-08-14T04:14:31.878Z,0.80
2018-08-14T04:17:00.592Z,0.70
2018-08-14T04:19:29.274Z,0.70
2018-08-14T04:21:57.977Z,0.83
2018-08-14T04:24:26.662Z,0.77
2018-08-14T04:26:55.345Z,0.57
2018-08-14T04:29:24.034Z,0.87
2018-08-14T04:31:52.714Z,0.80
2018-08-14T04:34:21.424Z,1.00
2018-08-14T04:36:50.098Z,0.83
2018-08-14T04:39:18.774Z,0.70
2018-08-14T04:41:47.527Z,0.77
2018-08-14T04:44:16.236Z,0.67
2018-08-14T04:46:44.998Z,0.73
2018-08-14T04:49:13.730Z,0.73
2018-08-14T04:51:42.447Z,0.70
2018-08-14T04:54:11.142Z,1.00
2018-08-14T04:56:39.871Z,0.90
2018-08-14T04:59:08.586Z,0.80
2018-08-14T05:01:37.338Z,0.80
2018-08-14T05:04:06.114Z,1.00
2018-08-14T05:06:34.918Z,0.90
2018-08-14T05:09:03.828Z,0.77
2018-08-14T05:11:32.520Z,0.70
2018-08-14T05:14:01.211Z,0.77
2018-08-14T05:16:29.886Z,0.90
2018-08-14T05:18:58.586Z,0.97
2018-08-14T05:21:27.322Z,1.33
2018-08-14T05:23:55.981Z,0.90
2018-08-14T05:26:24.685Z,0.57
2018-08-14T05:28:53.398Z,0.93
2018-08-14T05:31:22.134Z,0.73
2018-08-14T05:33:50.958Z,0.77
2018-08-14T05:36:19.624Z,0.67
2018-08-14T05:38:48.342Z,1.00
2018-08-14T05:41:17.054Z,0.83
2018-08-14T05:43:45.763Z,0.73
2018-08-14T05:46:14.460Z,0.67
2018-08-14T05:48:43.162Z,0.90
2018-08-14T05:51:11.906Z,0.57
2018-08-14T05:53:40.583Z,1.00
2018-08-14T05:56:09.282Z,0.80
2018-08-14T05:58:38.030Z,0.73
2018-08-14T06:01:06.719Z,0.70
2018-08-14T06:03:35.443Z,0.70
2018-08-14T06:06:04.322Z,0.70
2018-08-14T06:08:33.040Z,1.10
2018-08-14T06:11:01.794Z,1.37
2018-08-14T06:13:30.481Z,0.83
2018-08-14T06:15:59.159Z,0.70
2018-08-14T06:18:27.900Z,1.00
2018-08-14T06:20:56.658Z,0.87
2018-08-14T06:23:25.326Z,0.70
2018-08-14T06:25:53.992Z,0.87
2018-08-14T06:28:22.713Z,1.07
2018-08-14T06:30:51.488Z,0.67
2018-08-14T06:33:20.159Z,0.97
2018-08-14T06:35:48.857Z,1.10
2018-08-14T06:38:17.606Z,0.60
2018-08-14T06:40:46.319Z,0.63
2018-08-14T06:43:15.035Z,1.00
2018-08-14T06:45:43.748Z,0.70
2018-08-14T06:48:12.487Z,0.53
2018-08-14T06:50:41.182Z,0.83
2018-08-14T06:53:09.914Z,0.60
2018-08-14T06:55:38.638Z,0.97
2018-08-14T06:58:07.351Z,0.40
2018-08-14T07:00:36.035Z,0.60
2018-08-14T07:03:04.787Z,0.60
2018-08-14T07:05:33.590Z,0.50
2018-08-14T07:08:02.306Z,0.60
2018-08-14T07:10:31.021Z,0.60
2018-08-14T07:12:59.746Z,0.77
2018-08-14T07:15:28.538Z,0.50
2018-08-14T07:17:57.243Z,0.63
2018-08-14T07:20:25.922Z,0.40
2018-08-14T07:22:54.650Z,0.40
2018-08-14T07:25:23.354Z,0.20
2018-08-14T07:27:52.087Z,0.80
2018-08-14T07:30:22.862Z,0.80
2018-08-14T07:32:51.871Z,0.60
2018-08-14T07:35:20.637Z,0.90
2018-08-14T07:37:49.580Z,0.50
2018-08-14T07:40:18.338Z,0.50
2018-08-14T07:42:47.120Z,0.40
2018-08-14T07:45:16.808Z,0.60
2018-08-14T07:47:45.578Z,0.93
2018-08-14T07:50:14.789Z,0.73
2018-08-14T07:52:44.396Z,0.30
2018-08-14T07:55:13.490Z,0.50
2018-08-14T07:57:42.653Z,0.50
2018-08-14T08:00:16.863Z,0.60
2018-08-14T08:02:46.036Z,0.90
2018-08-14T08:05:14.776Z,0.43
2018-08-14T08:07:43.530Z,0.83
2018-08-14T08:10:14.202Z,0.60
2018-08-14T08:12:43.037Z,0.47
2018-08-14T08:15:13.309Z,0.50
2018-08-14T08:17:42.988Z,0.63
2018-08-14T08:20:18.434Z,0.50
2018-08-14T08:22:47.467Z,0.40
2018-08-14T08:25:16.455Z,0.40
2018-08-14T08:27:45.476Z,0.70
2018-08-14T08:30:14.447Z,0.53
2018-08-14T08:32:43.409Z,0.83
2018-08-14T08:35:12.533Z,0.40
2018-08-14T08:37:41.613Z,0.50
2018-08-14T08:40:10.935Z,0.50
2018-08-14T08:42:39.865Z,0.53
2018-08-14T08:45:09.523Z,0.70
2018-08-14T08:47:38.584Z,0.40
2018-08-14T08:50:09.923Z,0.63
2018-08-14T08:52:38.955Z,0.77
2018-08-14T08:55:08.659Z,0.77
2018-08-14T08:57:37.639Z,0.70
2018-08-14T09:00:09.747Z,0.50
2018-08-14T09:02:38.806Z,0.70
2018-08-14T09:11:57.023Z,0.50
2018-08-14T09:14:25.991Z,0.67
2018-08-14T09:16:55.219Z,0.47
2018-08-14T09:19:24.199Z,0.70
2018-08-14T09:21:53.147Z,0.60
2018-08-14T09:24:22.088Z,0.50
2018-08-14T09:26:51.105Z,0.70
2018-08-14T09:29:20.076Z,0.60
2018-08-14T09:31:49.038Z,0.60
2018-08-14T09:34:18.052Z,0.90
2018-08-14T09:36:47.100Z,0.60
2018-08-14T09:39:16.127Z,0.60
2018-08-14T09:41:45.163Z,0.63
2018-08-14T09:44:14.107Z,0.73
2018-08-14T09:46:43.179Z,1.00
2018-08-14T09:49:12.309Z,0.63
2018-08-14T09:51:41.422Z,0.73
2018-08-14T09:54:10.515Z,1.00
2018-08-14T09:56:39.524Z,0.70
2018-08-14T09:59:08.611Z,1.00
2018-08-14T10:01:43.001Z,0.67
2018-08-14T10:04:17.219Z,0.63
2018-08-14T10:06:51.443Z,0.80
2018-08-14T10:09:20.501Z,0.83
2018-08-14T10:11:49.575Z,0.80
2018-08-14T10:14:18.644Z,0.70
2018-08-14T10:16:47.647Z,0.77
2018-08-14T10:19:16.723Z,1.07
2018-08-14T10:21:45.667Z,0.90
2018-08-14T10:24:14.629Z,0.73
2018-08-14T10:26:43.775Z,1.20
2018-08-14T10:29:12.722Z,1.00
2018-08-14T10:31:41.760Z,0.90
2018-08-14T10:34:10.855Z,0.90
2018-08-14T10:36:39.967Z,0.90
2018-08-14T10:39:10.193Z,1.00
2018-08-14T10:41:40.116Z,1.10
2018-08-14T10:44:09.099Z,0.93
2018-08-14T10:46:38.055Z,0.80
2018-08-14T10:49:07.343Z,0.87
2018-08-14T10:51:36.395Z,0.87
2018-08-14T10:54:05.496Z,0.97
2018-08-14T10:56:34.483Z,0.90
2018-08-14T10:59:03.517Z,1.10
2018-08-14T11:01:32.475Z,0.83
2018-08-14T11:04:01.467Z,1.33
2018-08-14T11:06:30.418Z,1.10
2018-08-14T11:08:59.400Z,1.40
2018-08-14T11:11:30.959Z,1.10
2018-08-14T11:13:59.952Z,1.47
2018-08-14T11:16:28.966Z,1.20
2018-08-14T11:18:57.986Z,1.03
2018-08-14T11:21:26.971Z,0.87
2018-08-14T11:23:55.955Z,1.30
2018-08-14T11:26:24.887Z,1.47
2018-08-14T11:28:53.855Z,1.37
2018-08-14T11:31:22.831Z,1.20
2018-08-14T11:33:51.763Z,1.43
2018-08-14T11:36:20.779Z,1.90
2018-08-14T11:38:49.814Z,1.70
2018-08-14T11:41:18.787Z,1.40
2018-08-14T11:43:47.777Z,1.67
2018-08-14T11:46:16.789Z,1.67
2018-08-14T11:48:45.768Z,1.63
2018-08-14T11:51:14.805Z,1.60
2018-08-14T11:53:50.434Z,2.30
2018-08-14T11:56:19.435Z,1.77
2018-08-14T11:58:48.423Z,1.83
2018-08-14T12:01:17.455Z,1.90
2018-08-14T12:03:46.447Z,2.03
2018-08-14T12:06:15.462Z,1.70
2018-08-14T12:08:44.416Z,2.10
2018-08-14T12:11:13.479Z,2.20
2018-08-14T12:13:42.428Z,2.83
2018-08-14T12:16:11.364Z,2.60
2018-08-14T12:18:40.382Z,2.20
2018-08-14T12:21:09.412Z,2.60
2018-08-14T12:23:38.340Z,2.40
2018-08-14T12:26:07.303Z,2.40
2018-08-14T12:28:36.235Z,3.13
2018-08-14T12:31:05.235Z,3.27
2018-08-14T12:33:34.182Z,2.80
2018-08-14T12:36:03.375Z,3.27
2018-08-14T12:38:32.339Z,3.33
2018-08-14T12:41:01.322Z,2.80
2018-08-14T12:43:30.279Z,2.50
2018-08-14T12:45:59.216Z,2.93
2018-08-14T12:48:28.256Z,2.37
2018-08-14T12:50:57.219Z,2.30
2018-08-14T12:53:26.173Z,2.70
2018-08-14T12:55:55.163Z,2.40
2018-08-14T12:58:24.096Z,2.27
2018-08-14T13:00:53.067Z,2.80
2018-08-14T13:03:22.103Z,2.50
2018-08-14T13:05:51.071Z,2.70
2018-08-14T13:08:20.116Z,3.07
2018-08-14T13:10:49.140Z,2.30
2018-08-14T13:13:18.100Z,2.77
2018-08-14T13:15:47.184Z,2.80
2018-08-14T13:18:16.191Z,3.13
2018-08-14T13:20:45.346Z,2.87
2018-08-14T13:23:15.535Z,2.73
2018-08-14T13:25:44.592Z,3.07
2018-08-14T13:28:13.559Z,3.00
2018-08-14T13:30:42.608Z,2.90
2018-08-14T13:33:11.554Z,3.07
2018-08-14T13:35:40.617Z,3.17
2018-08-14T13:38:09.573Z,2.97
2018-08-14T13:40:38.548Z,3.30
2018-08-14T13:43:07.916Z,3.00
2018-08-14T13:45:36.852Z,2.90
2018-08-14T13:48:06.070Z,2.80
2018-08-14T13:50:34.927Z,2.70
2018-08-14T13:53:03.915Z,3.60
2018-08-14T13:55:32.963Z,3.07
2018-08-14T13:58:02.016Z,3.33
2018-08-14T14:00:31.086Z,2.90
2018-08-14T14:03:00.077Z,2.77
2018-08-14T14:05:29.079Z,3.53
2018-08-14T14:07:58.028Z,2.80
2018-08-14T14:10:27.009Z,3.17
2018-08-14T14:12:56.012Z,3.07
2018-08-14T14:15:26.351Z,3.23
2018-08-14T14:17:56.348Z,2.90
2018-08-14T14:20:28.495Z,3.30
2018-08-14T14:22:57.533Z,3.03
2018-08-14T14:25:26.793Z,2.87
2018-08-14T14:27:55.805Z,3.07
2018-08-14T14:30:24.838Z,3.10
2018-08-14T14:32:53.823Z,2.53
2018-08-14T14:35:22.776Z,2.50
2018-08-14T14:37:51.816Z,2.83
2018-08-14T14:40:23.272Z,2.43
2018-08-14T14:42:55.911Z,1.93
2018-08-14T14:45:24.903Z,2.57
2018-08-14T14:47:53.888Z,2.70
2018-08-14T14:50:22.881Z,2.43
2018-08-14T14:52:51.927Z,2.30
2018-08-14T14:55:22.196Z,2.30
2018-08-14T14:57:51.699Z,2.80
2018-08-14T15:00:24.919Z,2.47
2018-08-14T15:02:55.302Z,2.47
2018-08-14T15:05:24.586Z,2.70
2018-08-14T15:07:53.531Z,2.20
2018-08-14T15:10:22.801Z,2.40
2018-08-14T15:12:51.839Z,2.33
2018-08-14T15:15:20.945Z,2.57
2018-08-14T15:17:50.840Z,2.17
2018-08-14T15:20:23.636Z,2.53
2018-08-14T15:22:53.947Z,2.50
2018-08-14T15:25:23.963Z,2.50
2018-08-14T15:29:08.747Z,2.57
2018-08-14T15:31:39.659Z,2.70
2018-08-14T15:34:10.939Z,2.30
2018-08-14T15:36:40.109Z,2.43
2018-08-14T15:39:14.528Z,2.00
2018-08-14T15:41:43.671Z,2.50
2018-08-14T15:44:13.047Z,2.80
2018-08-14T15:46:42.247Z,2.50
2018-08-14T15:49:11.670Z,1.87
2018-08-14T15:51:41.092Z,1.83
2018-08-14T15:54:11.039Z,2.30
2018-08-14T15:56:40.449Z,1.90
2018-08-14T15:59:09.761Z,2.47
2018-08-14T16:01:38.843Z,2.40
2018-08-14T16:04:09.955Z,2.23
2018-08-14T16:06:38.940Z,4.43
2018-08-14T16:09:15.151Z,2.10
2018-08-14T16:11:44.727Z,2.40
2018-08-14T16:14:13.799Z,2.60
2018-08-14T16:16:42.921Z,2.50
2018-08-14T16:19:13.235Z,2.80
2018-08-14T16:21:42.455Z,2.40
2018-08-14T16:24:12.832Z,2.27
2018-08-14T16:26:41.845Z,2.00
2018-08-14T16:29:10.932Z,2.30
2018-08-14T16:31:39.971Z,2.00
2018-08-14T16:34:09.091Z,1.60
2018-08-14T16:36:38.535Z,1.90
2018-08-14T16:39:09.487Z,1.73
2018-08-14T16:41:38.467Z,2.03
2018-08-14T16:44:07.523Z,1.90
2018-08-14T16:46:36.581Z,2.20
2018-08-14T16:49:05.568Z,1.50
2018-08-14T16:51:34.566Z,1.67
2018-08-14T16:54:03.567Z,1.77
2018-08-14T16:56:32.603Z,1.97
2018-08-14T16:59:01.559Z,1.53
2018-08-14T17:01:30.608Z,1.80
2018-08-14T17:03:59.595Z,1.20
2018-08-14T17:06:28.629Z,1.43
2018-08-14T17:08:57.823Z,1.63
2018-08-14T17:11:26.812Z,1.10
2018-08-14T17:13:55.775Z,1.03
2018-08-14T17:16:24.735Z,1.17
2018-08-14T17:18:53.994Z,0.80
2018-08-14T17:21:21.692Z,0.90
2018-08-14T17:23:50.787Z,0.70
2018-08-14T17:26:19.872Z,0.80
2018-08-14T17:28:48.908Z,0.60
2018-08-14T17:31:18.056Z,0.80
2018-08-14T17:33:47.094Z,0.90
2018-08-14T17:36:16.159Z,0.80
2018-08-14T17:38:45.435Z,0.73
2018-08-14T17:41:14.570Z,0.60
2018-08-14T17:43:43.806Z,0.60
2018-08-14T17:46:13.124Z,0.50
2018-08-14T17:48:42.444Z,0.70
2018-08-14T17:51:11.671Z,0.50
2018-08-14T17:53:41.049Z,0.80
2018-08-14T17:56:10.180Z,1.50
2018-08-14T17:58:39.364Z,0.80
2018-08-14T18:01:08.708Z,0.70
2018-08-14T18:03:37.699Z,0.53
2018-08-14T18:06:06.843Z,0.70
2018-08-14T18:08:35.857Z,0.70
2018-08-14T18:11:04.839Z,0.57
2018-08-14T18:13:33.778Z,0.60
2018-08-14T18:16:02.763Z,0.50
2018-08-14T18:18:31.731Z,0.53
2018-08-14T18:21:00.749Z,0.50
2018-08-14T18:23:29.733Z,0.70
2018-08-14T18:25:58.655Z,0.50
2018-08-14T18:28:27.626Z,0.70
2018-08-14T18:30:56.625Z,0.60
2018-08-14T18:33:25.669Z,0.70
2018-08-14T18:35:54.612Z,1.00
2018-08-14T18:38:23.599Z,0.73
2018-08-14T18:40:52.598Z,0.63
2018-08-14T18:43:21.569Z,0.73
2018-08-14T18:45:50.535Z,0.87
2018-08-14T18:48:19.500Z,0.50
2018-08-14T18:50:48.476Z,0.70
2018-08-14T18:53:17.539Z,0.97
2018-08-14T18:55:46.440Z,0.90
2018-08-14T18:58:15.388Z,1.00
2018-08-14T19:00:44.387Z,1.07
2018-08-14T19:03:13.403Z,1.00
2018-08-14T19:05:42.404Z,0.70
2018-08-14T19:08:11.380Z,1.20
2018-08-14T19:10:40.426Z,1.70
2018-08-14T19:13:09.367Z,1.33
2018-08-14T19:15:39.363Z,1.80
2018-08-14T19:18:09.944Z,2.00
2018-08-14T19:20:39.120Z,1.87
2018-08-14T19:23:08.389Z,1.60
2018-08-14T19:25:37.417Z,1.90
2018-08-14T19:28:06.548Z,1.80
2018-08-14T19:30:35.559Z,1.50
2018-08-14T19:33:04.724Z,1.50
2018-08-14T19:35:33.696Z,1.30
2018-08-14T19:38:02.719Z,1.80
2018-08-14T19:40:31.732Z,1.83
2018-08-14T19:43:00.735Z,2.13
2018-08-14T19:45:29.700Z,2.17
2018-08-14T19:47:58.672Z,2.10
2018-08-14T19:50:27.694Z,2.33
2018-08-14T19:52:56.648Z,3.43
2018-08-14T19:55:25.684Z,3.73
2018-08-14T19:57:54.713Z,3.87
2018-08-14T20:00:26.884Z,4.30
2018-08-14T20:02:56.391Z,4.90
2018-08-14T20:05:25.483Z,5.00
2018-08-14T20:07:54.572Z,5.43
2018-08-14T20:10:23.577Z,5.50
2018-08-14T20:12:52.720Z,6.20
2018-08-14T20:15:26.957Z,6.47
2018-08-14T20:17:55.965Z,6.87
2018-08-14T20:20:24.884Z,6.80
2018-08-14T20:22:53.859Z,7.07
2018-08-14T20:25:22.842Z,6.77
2018-08-14T20:27:51.824Z,6.87
2018-08-14T20:30:20.831Z,8.03
2018-08-14T20:32:49.860Z,7.83
2018-08-14T20:35:18.919Z,8.10
2018-08-14T20:37:48.600Z,9.10
2018-08-14T20:40:19.771Z,9.60
2018-08-14T20:42:48.855Z,9.43
2018-08-14T20:45:17.945Z,10.23
2018-08-14T20:47:46.999Z,9.73
2018-08-14T20:50:17.487Z,9.53
2018-08-14T20:52:46.699Z,9.80
2018-08-14T20:55:16.514Z,10.43
2018-08-14T20:57:45.526Z,9.97
2018-08-14T21:00:19.079Z,10.80
2018-08-14T21:02:48.366Z,10.60
2018-08-14T21:05:17.460Z,9.97
2018-08-14T21:07:47.266Z,10.47
2018-08-14T21:10:17.083Z,11.10
2018-08-14T21:12:46.144Z,11.90
2018-08-14T21:15:17.307Z,12.67
2018-08-14T21:17:47.140Z,12.90
2018-08-14T21:20:17.972Z,11.90
2018-08-14T21:22:47.771Z,12.77
2018-08-14T21:25:17.355Z,12.73
2018-08-14T21:27:46.423Z,12.07
2018-08-14T21:30:16.690Z,12.57
2018-08-14T21:32:45.659Z,12.90
2018-08-14T21:35:16.660Z,13.47
2018-08-14T21:37:45.803Z,13.30
2018-08-14T21:40:16.428Z,13.70
2018-08-14T21:42:46.776Z,12.37
2018-08-14T21:45:17.123Z,14.27
2018-08-14T21:47:46.219Z,13.47
2018-08-14T21:50:15.251Z,12.80
2018-08-14T21:52:44.262Z,13.63
2018-08-14T21:55:14.281Z,13.07
2018-08-14T21:57:43.992Z,16.23
2018-08-14T22:00:22.641Z,13.63
2018-08-14T22:02:52.313Z,13.70
2018-08-14T22:05:21.264Z,14.13
2018-08-14T22:07:50.494Z,13.50
2018-08-14T22:10:20.533Z,13.47
2018-08-14T22:12:49.962Z,13.83
2018-08-14T22:15:19.010Z,13.67
2018-08-14T22:17:48.266Z,13.77
2018-08-14T22:20:17.438Z,14.57
2018-08-14T22:22:46.467Z,15.37
2018-08-14T22:25:15.811Z,14.93
2018-08-14T22:27:44.823Z,14.43
2018-08-14T22:30:14.635Z,13.40
2018-08-14T22:32:44.423Z,15.10
2018-08-14T22:35:13.371Z,13.20
2018-08-14T22:37:42.377Z,14.00
2018-08-14T22:40:11.359Z,12.57
2018-08-14T22:42:40.455Z,12.27
2018-08-14T22:45:10.534Z,12.97
2018-08-14T22:47:40.451Z,13.23
2018-08-14T22:50:10.331Z,12.27
2018-08-14T22:52:39.731Z,11.37
2018-08-14T22:55:10.116Z,12.53
2018-08-14T22:57:39.679Z,12.90
2018-08-14T23:00:10.975Z,12.40
2018-08-14T23:02:39.965Z,11.20
2018-08-14T23:05:09.023Z,12.07
2018-08-14T23:07:37.981Z,10.83
2018-08-14T23:10:07.711Z,10.80
2018-08-14T23:12:36.645Z,8.80
2018-08-14T23:15:07.633Z,9.47
2018-08-14T23:17:36.612Z,8.70
2018-08-14T23:20:08.260Z,7.83
2018-08-14T23:22:37.203Z,7.80
2018-08-14T23:25:06.663Z,8.33
2018-08-14T23:27:35.726Z,8.17
2018-08-14T23:30:05.992Z,8.20
2018-08-14T23:32:34.927Z,7.67
2018-08-14T23:35:03.931Z,8.30
2018-08-14T23:37:32.897Z,7.90
2018-08-14T23:40:01.843Z,8.03
2018-08-14T23:42:30.772Z,8.43
2018-08-14T23:44:59.715Z,7.07
2018-08-14T23:47:28.651Z,7.67
2018-08-14T23:49:57.572Z,7.83
2018-08-14T23:52:26.563Z,6.57
2018-08-14T23:54:55.503Z,5.67
2018-08-14T23:57:24.447Z,6.10
2018-08-14T23:59:53.427Z,5.80
